Aviation Digital Data Service (ADDS)

Output produced by METARs form (0505 UTC 21 January 2019)
found at http://www.aviationweather.gov/metar/data/
 
METAR text: ZSNJ 210400Z 28003MPS 250V350 CAVOK 08/M06 Q1029 NOSIG
Conditions at: ZSNJ (NANJING/LUKOU , CN) observed 0400 UTC 21 January 2019
Temperature: 8.0°C (46°F)
Dewpoint: -6.0°C (21°F) [RH = 36%]
Pressure (altimeter): 30.38 inches Hg (1029.0 mb)
Winds: from the W (280 degrees) at 7 MPH (6 knots; 3.1 m/s)
Visibility: 6 or more miles (10+ km)
Ceiling: ceiling and visibility are OK
Clouds: unknown
Weather: no significant weather observed at this time

METAR text: ZSNJ 210300Z 25002MPS 170V300 CAVOK 07/M06 Q1030 NOSIG
Conditions at: ZSNJ (NANJING/LUKOU , CN) observed 0300 UTC 21 January 2019
Temperature: 7.0°C (45°F)
Dewpoint: -6.0°C (21°F) [RH = 39%]
Pressure (altimeter): 30.41 inches Hg (1030.0 mb)
Winds: from the WSW (250 degrees) at 5 MPH (4 knots; 2.1 m/s)
Visibility: 6 or more miles (10+ km)
Ceiling: ceiling and visibility are OK
Clouds: unknown
Weather: no significant weather observed at this time

METAR text: ZSNJ 210200Z 26002MPS 220V310 9000 NSC 06/M04 Q1031 NOSIG
Conditions at: ZSNJ (NANJING/LUKOU , CN) observed 0200 UTC 21 January 2019
Temperature: 6.0°C (43°F)
Dewpoint: -4.0°C (25°F) [RH = 49%]
Pressure (altimeter): 30.44 inches Hg (1031.0 mb)
Winds: from the W (260 degrees) at 5 MPH (4 knots; 2.1 m/s)
Visibility: 6 miles ( 9 km)
Ceiling: at least 12,000 feet AGL
Clouds: sky clear below 12,000 feet AGL
Weather: no significant weather observed at this time

METAR text: ZSNJ 210100Z 00000MPS 8000 NSC 03/M01 Q1031 NOSIG
Conditions at: ZSNJ (NANJING/LUKOU , CN) observed 0100 UTC 21 January 2019
Temperature: 3.0°C (37°F)
Dewpoint: -1.0°C (30°F) [RH = 75%]
Pressure (altimeter): 30.44 inches Hg (1031.0 mb)
Winds: calm
Visibility: 5 miles ( 8 km)
Ceiling: at least 12,000 feet AGL
Clouds: sky clear below 12,000 feet AGL
Weather: no significant weather observed at this time

METAR text: ZSNJ 210000Z VRB01MPS 7000 NSC M00/M01 Q1031 NOSIG
Conditions at: ZSNJ (NANJING/LUKOU , CN) observed 0000 UTC 21 January 2019
Temperature: 0.0°C (32°F)
Dewpoint: -1.0°C (30°F) [RH = 93%]
Pressure (altimeter): 30.44 inches Hg (1031.0 mb)
Winds: variable direction winds at 2 MPH (2 knots; 1.0 m/s)
Visibility: 4 miles ( 7 km)
Ceiling: at least 12,000 feet AGL
Clouds: sky clear below 12,000 feet AGL
Weather: no significant weather observed at this time

METAR text: ZSNJ 202300Z VRB01MPS 7000 NSC M00/M02 Q1031 NOSIG
Conditions at: ZSNJ (NANJING/LUKOU , CN) observed 2300 UTC 20 January 2019
Temperature: 0.0°C (32°F)
Dewpoint: -2.0°C (28°F) [RH = 86%]
Pressure (altimeter): 30.44 inches Hg (1031.0 mb)
Winds: variable direction winds at 2 MPH (2 knots; 1.0 m/s)
Visibility: 4 miles ( 7 km)
Ceiling: at least 12,000 feet AGL
Clouds: sky clear below 12,000 feet AGL
Weather: no significant weather observed at this time

METAR text: ZSNJ 202200Z 24001MPS 6000 NSC M02/M02 Q1031 NOSIG
Conditions at: ZSNJ (NANJING/LUKOU , CN) observed 2200 UTC 20 January 2019
Temperature: -2.0°C (28°F)
Dewpoint: -2.0°C (28°F) [RH = 100%]
Pressure (altimeter): 30.44 inches Hg (1031.0 mb)
Winds: from the WSW (240 degrees) at 2 MPH (2 knots; 1.0 m/s)
Visibility: 4 miles ( 6 km)
Ceiling: at least 12,000 feet AGL
Clouds: sky clear below 12,000 feet AGL
Weather: no significant weather observed at this time

METAR text: ZSNJ 202100Z VRB01MPS 6000 NSC M02/M03 Q1031 NOSIG
Conditions at: ZSNJ (NANJING/LUKOU , CN) observed 2100 UTC 20 January 2019
Temperature: -2.0°C (28°F)
Dewpoint: -3.0°C (27°F) [RH = 93%]
Pressure (altimeter): 30.44 inches Hg (1031.0 mb)
Winds: variable direction winds at 2 MPH (2 knots; 1.0 m/s)
Visibility: 4 miles ( 6 km)
Ceiling: at least 12,000 feet AGL
Clouds: sky clear below 12,000 feet AGL
Weather: no significant weather observed at this time

METAR text: ZSNJ 202000Z 23001MPS 6000 NSC M03/M03 Q1031 NOSIG
Conditions at: ZSNJ (NANJING/LUKOU , CN) observed 2000 UTC 20 January 2019
Temperature: -3.0°C (27°F)
Dewpoint: -3.0°C (27°F) [RH = 100%]
Pressure (altimeter): 30.44 inches Hg (1031.0 mb)
Winds: from the SW (230 degrees) at 2 MPH (2 knots; 1.0 m/s)
Visibility: 4 miles ( 6 km)
Ceiling: at least 12,000 feet AGL
Clouds: sky clear below 12,000 feet AGL
Weather: no significant weather observed at this time

METAR text: ZSNJ 201900Z 27001MPS 6000 NSC M02/M03 Q1031 NOSIG
Conditions at: ZSNJ (NANJING/LUKOU , CN) observed 1900 UTC 20 January 2019
Temperature: -2.0°C (28°F)
Dewpoint: -3.0°C (27°F) [RH = 93%]
Pressure (altimeter): 30.44 inches Hg (1031.0 mb)
Winds: from the W (270 degrees) at 2 MPH (2 knots; 1.0 m/s)
Visibility: 4 miles ( 6 km)
Ceiling: at least 12,000 feet AGL
Clouds: sky clear below 12,000 feet AGL
Weather: no significant weather observed at this time

METAR text: ZSNJ 201800Z 27001MPS 6000 NSC M02/M03 Q1032 NOSIG
Conditions at: ZSNJ (NANJING/LUKOU , CN) observed 1800 UTC 20 January 2019
Temperature: -2.0°C (28°F)
Dewpoint: -3.0°C (27°F) [RH = 93%]
Pressure (altimeter): 30.47 inches Hg (1032.0 mb)
Winds: from the W (270 degrees) at 2 MPH (2 knots; 1.0 m/s)
Visibility: 4 miles ( 6 km)
Ceiling: at least 12,000 feet AGL
Clouds: sky clear below 12,000 feet AGL
Weather: no significant weather observed at this time

METAR text: ZSNJ 201700Z 24001MPS 8000 NSC M02/M03 Q1032 NOSIG
Conditions at: ZSNJ (NANJING/LUKOU , CN) observed 1700 UTC 20 January 2019
Temperature: -2.0°C (28°F)
Dewpoint: -3.0°C (27°F) [RH = 93%]
Pressure (altimeter): 30.47 inches Hg (1032.0 mb)
Winds: from the WSW (240 degrees) at 2 MPH (2 knots; 1.0 m/s)
Visibility: 5 miles ( 8 km)
Ceiling: at least 12,000 feet AGL
Clouds: sky clear below 12,000 feet AGL
Weather: no significant weather observed at this time

METAR text: ZSNJ 201600Z 27001MPS CAVOK M01/M02 Q1033 NOSIG
Conditions at: ZSNJ (NANJING/LUKOU , CN) observed 1600 UTC 20 January 2019
Temperature: -1.0°C (30°F)
Dewpoint: -2.0°C (28°F) [RH = 93%]
Pressure (altimeter): 30.50 inches Hg (1033.0 mb)
Winds: from the W (270 degrees) at 2 MPH (2 knots; 1.0 m/s)
Visibility: 6 or more miles (10+ km)
Ceiling: ceiling and visibility are OK
Clouds: unknown
Weather: no significant weather observed at this time

METAR text: ZSNJ 201500Z 26002MPS CAVOK M01/M02 Q1033 NOSIG
Conditions at: ZSNJ (NANJING/LUKOU , CN) observed 1500 UTC 20 January 2019
Temperature: -1.0°C (30°F)
Dewpoint: -2.0°C (28°F) [RH = 93%]
Pressure (altimeter): 30.50 inches Hg (1033.0 mb)
Winds: from the W (260 degrees) at 5 MPH (4 knots; 2.1 m/s)
Visibility: 6 or more miles (10+ km)
Ceiling: ceiling and visibility are OK
Clouds: unknown
Weather: no significant weather observed at this time

METAR text: ZSNJ 201400Z 34001MPS CAVOK 01/M03 Q1033 NOSIG
Conditions at: ZSNJ (NANJING/LUKOU , CN) observed 1400 UTC 20 January 2019
Temperature: 1.0°C (34°F)
Dewpoint: -3.0°C (27°F) [RH = 75%]
Pressure (altimeter): 30.50 inches Hg (1033.0 mb)
Winds: from the NNW (340 degrees) at 2 MPH (2 knots; 1.0 m/s)
Visibility: 6 or more miles (10+ km)
Ceiling: ceiling and visibility are OK
Clouds: unknown
Weather: no significant weather observed at this time

METAR text: ZSNJ 201300Z VRB01MPS CAVOK 03/M02 Q1033 NOSIG
Conditions at: ZSNJ (NANJING/LUKOU , CN) observed 1300 UTC 20 January 2019
Temperature: 3.0°C (37°F)
Dewpoint: -2.0°C (28°F) [RH = 70%]
Pressure (altimeter): 30.50 inches Hg (1033.0 mb)
Winds: variable direction winds at 2 MPH (2 knots; 1.0 m/s)
Visibility: 6 or more miles (10+ km)
Ceiling: ceiling and visibility are OK
Clouds: unknown
Weather: no significant weather observed at this time

METAR text: ZSNJ 201200Z 03002MPS CAVOK 04/M02 Q1033 NOSIG
Conditions at: ZSNJ (NANJING/LUKOU , CN) observed 1200 UTC 20 January 2019
Temperature: 4.0°C (39°F)
Dewpoint: -2.0°C (28°F) [RH = 65%]
Pressure (altimeter): 30.50 inches Hg (1033.0 mb)
Winds: from the NNE (30 degrees) at 5 MPH (4 knots; 2.1 m/s)
Visibility: 6 or more miles (10+ km)
Ceiling: ceiling and visibility are OK
Clouds: unknown
Weather: no significant weather observed at this time

METAR text: ZSNJ 201100Z 05002MPS CAVOK 05/M03 Q1032 NOSIG
Conditions at: ZSNJ (NANJING/LUKOU , CN) observed 1100 UTC 20 January 2019
Temperature: 5.0°C (41°F)
Dewpoint: -3.0°C (27°F) [RH = 56%]
Pressure (altimeter): 30.47 inches Hg (1032.0 mb)
Winds: from the NE (50 degrees) at 5 MPH (4 knots; 2.1 m/s)
Visibility: 6 or more miles (10+ km)
Ceiling: ceiling and visibility are OK
Clouds: unknown
Weather: no significant weather observed at this time

METAR text: ZSNJ 201000Z 04002MPS 9000 NSC 05/M04 Q1031 NOSIG
Conditions at: ZSNJ (NANJING/LUKOU , CN) observed 1000 UTC 20 January 2019
Temperature: 5.0°C (41°F)
Dewpoint: -4.0°C (25°F) [RH = 52%]
Pressure (altimeter): 30.44 inches Hg (1031.0 mb)
Winds: from the NE (40 degrees) at 5 MPH (4 knots; 2.1 m/s)
Visibility: 6 miles ( 9 km)
Ceiling: at least 12,000 feet AGL
Clouds: sky clear below 12,000 feet AGL
Weather: no significant weather observed at this time

METAR text: ZSNJ 200900Z 01003MPS 330V050 8000 NSC 07/M06 Q1031 NOSIG
Conditions at: ZSNJ (NANJING/LUKOU , CN) observed 0900 UTC 20 January 2019
Temperature: 7.0°C (45°F)
Dewpoint: -6.0°C (21°F) [RH = 39%]
Pressure (altimeter): 30.44 inches Hg (1031.0 mb)
Winds: from the N (10 degrees) at 7 MPH (6 knots; 3.1 m/s)
Visibility: 5 miles ( 8 km)
Ceiling: at least 12,000 feet AGL
Clouds: sky clear below 12,000 feet AGL
Weather: no significant weather observed at this time

METAR text: ZSNJ 200800Z 03002MPS 340V070 7000 NSC 08/M06 Q1030 NOSIG
Conditions at: ZSNJ (NANJING/LUKOU , CN) observed 0800 UTC 20 January 2019
Temperature: 8.0°C (46°F)
Dewpoint: -6.0°C (21°F) [RH = 36%]
Pressure (altimeter): 30.41 inches Hg (1030.0 mb)
Winds: from the NNE (30 degrees) at 5 MPH (4 knots; 2.1 m/s)
Visibility: 4 miles ( 7 km)
Ceiling: at least 12,000 feet AGL
Clouds: sky clear below 12,000 feet AGL
Weather: no significant weather observed at this time

METAR text: ZSNJ 200700Z 01003MPS 340V040 8000 NSC 08/M08 Q1030 NOSIG
Conditions at: ZSNJ (NANJING/LUKOU , CN) observed 0700 UTC 20 January 2019
Temperature: 8.0°C (46°F)
Dewpoint: -8.0°C (18°F) [RH = 31%]
Pressure (altimeter): 30.41 inches Hg (1030.0 mb)
Winds: from the N (10 degrees) at 7 MPH (6 knots; 3.1 m/s)
Visibility: 5 miles ( 8 km)
Ceiling: at least 12,000 feet AGL
Clouds: sky clear below 12,000 feet AGL
Weather: no significant weather observed at this time

METAR text: ZSNJ 200600Z 02003MPS 340V070 6000 NSC 08/M04 Q1031 NOSIG
Conditions at: ZSNJ (NANJING/LUKOU , CN) observed 0600 UTC 20 January 2019
Temperature: 8.0°C (46°F)
Dewpoint: -4.0°C (25°F) [RH = 42%]
Pressure (altimeter): 30.44 inches Hg (1031.0 mb)
Winds: from the NNE (20 degrees) at 7 MPH (6 knots; 3.1 m/s)
Visibility: 4 miles ( 6 km)
Ceiling: at least 12,000 feet AGL
Clouds: sky clear below 12,000 feet AGL
Weather: no significant weather observed at this time

METAR text: ZSNJ 200500Z 02003MPS 320V110 4000 HZ NSC 08/M04 Q1030 NOSIG
Conditions at: ZSNJ (NANJING/LUKOU , CN) observed 0500 UTC 20 January 2019
Temperature: 8.0°C (46°F)
Dewpoint: -4.0°C (25°F) [RH = 42%]
Pressure (altimeter): 30.41 inches Hg (1030.0 mb)
Winds: from the NNE (20 degrees) at 7 MPH (6 knots; 3.1 m/s)
Visibility: 2.49 miles (4.01 km)
Ceiling: at least 12,000 feet AGL
Clouds: sky clear below 12,000 feet AGL
Weather: HZ  (haze)

METAR text: ZSNJ 200400Z 02003MPS 310V100 3500 HZ FEW030 07/M03 Q1031 NOSIG
Conditions at: ZSNJ (NANJING/LUKOU , CN) observed 0400 UTC 20 January 2019
Temperature: 7.0°C (45°F)
Dewpoint: -3.0°C (27°F) [RH = 49%]
Pressure (altimeter): 30.44 inches Hg (1031.0 mb)
Winds: from the NNE (20 degrees) at 7 MPH (6 knots; 3.1 m/s)
Visibility: 2.17 miles (3.49 km)
Ceiling: at least 12,000 feet AGL
Clouds: few clouds at 3000 feet AGL
Weather: HZ  (haze)

METAR text: ZSNJ 200300Z 04002MPS 350V090 3000 HZ NSC 06/M01 Q1031 NOSIG
Conditions at: ZSNJ (NANJING/LUKOU , CN) observed 0300 UTC 20 January 2019
Temperature: 6.0°C (43°F)
Dewpoint: -1.0°C (30°F) [RH = 61%]
Pressure (altimeter): 30.44 inches Hg (1031.0 mb)
Winds: from the NE (40 degrees) at 5 MPH (4 knots; 2.1 m/s)
Visibility: 1.86 miles (2.99 km)
Ceiling: at least 12,000 feet AGL
Clouds: sky clear below 12,000 feet AGL
Weather: HZ  (haze)

METAR text: ZSNJ 200200Z 04003MPS 360V090 3000 HZ FEW030 05/M01 Q1032 NOSIG
Conditions at: ZSNJ (NANJING/LUKOU , CN) observed 0200 UTC 20 January 2019
Temperature: 5.0°C (41°F)
Dewpoint: -1.0°C (30°F) [RH = 65%]
Pressure (altimeter): 30.47 inches Hg (1032.0 mb)
Winds: from the NE (40 degrees) at 7 MPH (6 knots; 3.1 m/s)
Visibility: 1.86 miles (2.99 km)
Ceiling: at least 12,000 feet AGL
Clouds: few clouds at 3000 feet AGL
Weather: HZ  (haze)

METAR text: ZSNJ 200100Z 04003MPS 360V080 2800 HZ FEW030 04/M01 Q1031 BECMG TL0230 3000
Conditions at: ZSNJ (NANJING/LUKOU , CN) observed 0100 UTC 20 January 2019
Temperature: 4.0°C (39°F)
Dewpoint: -1.0°C (30°F) [RH = 70%]
Pressure (altimeter): 30.44 inches Hg (1031.0 mb)
Winds: from the NE (40 degrees) at 7 MPH (6 knots; 3.1 m/s)
Visibility: 1.74 miles (2.80 km)
Ceiling: at least 12,000 feet AGL
Clouds: few clouds at 3000 feet AGL
Weather: HZ  (haze)

METAR text: ZSNJ 200000Z 06002MPS 2200 BR NSC 04/01 Q1031 BECMG TL0130 3000
Conditions at: ZSNJ (NANJING/LUKOU , CN) observed 0000 UTC 20 January 2019
Temperature: 4.0°C (39°F)
Dewpoint: 1.0°C (34°F) [RH = 81%]
Pressure (altimeter): 30.44 inches Hg (1031.0 mb)
Winds: from the ENE (60 degrees) at 5 MPH (4 knots; 2.1 m/s)
Visibility: 1.37 miles (2.20 km)
Ceiling: at least 12,000 feet AGL
Clouds: sky clear below 12,000 feet AGL
Weather: BR  (mist)

METAR text: ZSNJ 192300Z VRB01MPS 2100 BR NSC 03/02 Q1030 NOSIG
Conditions at: ZSNJ (NANJING/LUKOU , CN) observed 2300 UTC 19 January 2019
Temperature: 3.0°C (37°F)
Dewpoint: 2.0°C (36°F) [RH = 93%]
Pressure (altimeter): 30.41 inches Hg (1030.0 mb)
Winds: variable direction winds at 2 MPH (2 knots; 1.0 m/s)
Visibility: 1.30 miles (2.09 km)
Ceiling: at least 12,000 feet AGL
Clouds: sky clear below 12,000 feet AGL
Weather: BR  (mist)

METAR text: ZSNJ 192200Z VRB01MPS 2300 BR NSC 04/02 Q1029 NOSIG
Conditions at: ZSNJ (NANJING/LUKOU , CN) observed 2200 UTC 19 January 2019
Temperature: 4.0°C (39°F)
Dewpoint: 2.0°C (36°F) [RH = 87%]
Pressure (altimeter): 30.38 inches Hg (1029.0 mb)
Winds: variable direction winds at 2 MPH (2 knots; 1.0 m/s)
Visibility: 1.43 miles (2.30 km)
Ceiling: at least 12,000 feet AGL
Clouds: sky clear below 12,000 feet AGL
Weather: BR  (mist)

METAR text: ZSNJ 192100Z 31001MPS 1700 BR NSC 03/02 Q1028 NOSIG
Conditions at: ZSNJ (NANJING/LUKOU , CN) observed 2100 UTC 19 January 2019
Temperature: 3.0°C (37°F)
Dewpoint: 2.0°C (36°F) [RH = 93%]
Pressure (altimeter): 30.35 inches Hg (1028.0 mb)
Winds: from the NW (310 degrees) at 2 MPH (2 knots; 1.0 m/s)
Visibility: 1.06 miles (1.71 km)
Ceiling: at least 12,000 feet AGL
Clouds: sky clear below 12,000 feet AGL
Weather: BR  (mist)

METAR text: ZSNJ 192000Z VRB01MPS 1700 BR NSC 03/02 Q1028 NOSIG
Conditions at: ZSNJ (NANJING/LUKOU , CN) observed 2000 UTC 19 January 2019
Temperature: 3.0°C (37°F)
Dewpoint: 2.0°C (36°F) [RH = 93%]
Pressure (altimeter): 30.35 inches Hg (1028.0 mb)
Winds: variable direction winds at 2 MPH (2 knots; 1.0 m/s)
Visibility: 1.06 miles (1.71 km)
Ceiling: at least 12,000 feet AGL
Clouds: sky clear below 12,000 feet AGL
Weather: BR  (mist)

METAR text: ZSNJ 191900Z VRB01MPS 1600 BR SCT026 02/02 Q1028 NOSIG
Conditions at: ZSNJ (NANJING/LUKOU , CN) observed 1900 UTC 19 January 2019
Temperature: 2.0°C (36°F)
Dewpoint: 2.0°C (36°F) [RH = 100%]
Pressure (altimeter): 30.35 inches Hg (1028.0 mb)
Winds: variable direction winds at 2 MPH (2 knots; 1.0 m/s)
Visibility: 0.99 miles (1.59 km)
Ceiling: at least 12,000 feet AGL
Clouds: scattered clouds at 2600 feet AGL
Weather: BR  (mist)

METAR text: ZSNJ 191800Z 29001MPS 2300 BR SCT027 03/02 Q1028 NOSIG
Conditions at: ZSNJ (NANJING/LUKOU , CN) observed 1800 UTC 19 January 2019
Temperature: 3.0°C (37°F)
Dewpoint: 2.0°C (36°F) [RH = 93%]
Pressure (altimeter): 30.35 inches Hg (1028.0 mb)
Winds: from the WNW (290 degrees) at 2 MPH (2 knots; 1.0 m/s)
Visibility: 1.43 miles (2.30 km)
Ceiling: at least 12,000 feet AGL
Clouds: scattered clouds at 2700 feet AGL
Weather: BR  (mist)

Forecast for: ZSNJ (NANJING/LUKOU , CN)
Text: TAF ZSNJ 210304Z 2106/2206 26004MPS 3500 HZ NSC TX08/2106Z TNM01/23Z
Forecast period: 0600 UTC 21 January 2019 to 0600 UTC 22 January 2019
Forecast type: FROM: standard forecast or significant change
Winds: from the W (260 degrees) at 9 MPH (8 knots; 4.1 m/s)
Visibility: 2.17 miles (3.49 km)
Ceiling: unknown
Clouds: missing
Weather: HZ  (haze)
Text: TEMPO 2118/2124 2000 BR
Forecast period: 1800 UTC 21 January 2019 to 0000 UTC 22 January 2019
Forecast type: TEMPORARY: The following changes expected for less than half the time period
Visibility: 1.24 miles (2.00 km)
Ceiling: unknown
Clouds: missing
Weather: BR  (mist)